createdAt,value
2019-01-29T00:02:27.079Z,13.07
2019-01-29T00:04:55.284Z,13.00
2019-01-29T00:07:24.053Z,12.97
2019-01-29T00:09:52.723Z,11.20
2019-01-29T00:12:21.121Z,13.23
2019-01-29T00:14:49.706Z,13.70
2019-01-29T00:17:17.966Z,15.13
2019-01-29T00:19:46.444Z,13.70
2019-01-29T00:22:14.863Z,15.77
2019-01-29T00:24:43.461Z,12.17
2019-01-29T00:27:12.090Z,14.30
2019-01-29T00:29:40.790Z,12.63
2019-01-29T00:32:09.037Z,12.97
2019-01-29T00:34:37.738Z,14.10
2019-01-29T00:37:05.980Z,12.53
2019-01-29T00:39:34.473Z,13.97
2019-01-29T00:42:03.177Z,11.87
2019-01-29T00:44:31.866Z,14.40
2019-01-29T00:47:00.538Z,16.23
2019-01-29T00:49:28.746Z,12.60
2019-01-29T00:51:57.475Z,17.27
2019-01-29T00:54:26.129Z,15.83
2019-01-29T00:56:54.877Z,17.70
2019-01-29T00:59:23.793Z,16.33
2019-01-29T01:01:52.364Z,18.43
2019-01-29T01:04:20.874Z,16.90
2019-01-29T01:06:49.439Z,18.53
2019-01-29T01:09:17.986Z,18.63
2019-01-29T01:11:46.338Z,18.00
2019-01-29T01:14:15.297Z,20.67
2019-01-29T01:16:43.765Z,19.57
2019-01-29T01:19:12.393Z,20.70
2019-01-29T01:21:40.757Z,21.90
2019-01-29T01:24:09.412Z,20.77
2019-01-29T01:26:37.734Z,16.43
2019-01-29T01:29:06.322Z,17.80
2019-01-29T01:31:35.706Z,18.07
2019-01-29T01:34:04.302Z,22.57
2019-01-29T01:36:32.606Z,17.17
2019-01-29T01:39:01.013Z,19.27
2019-01-29T01:41:30.631Z,16.23
2019-01-29T01:43:59.385Z,17.67
2019-01-29T01:46:28.195Z,21.47
2019-01-29T01:48:56.813Z,16.17
2019-01-29T01:51:25.323Z,16.30
2019-01-29T01:53:53.985Z,17.93
2019-01-29T01:56:22.669Z,18.37
2019-01-29T01:58:51.082Z,13.67
2019-01-29T02:01:19.700Z,12.90
2019-01-29T02:03:47.958Z,16.57
2019-01-29T02:06:16.351Z,13.87
2019-01-29T02:08:44.861Z,16.23
2019-01-29T02:11:13.339Z,17.60
2019-01-29T02:13:42.050Z,15.57
2019-01-29T02:16:10.712Z,19.23
2019-01-29T02:18:38.989Z,17.30
2019-01-29T02:21:07.693Z,17.87
2019-01-29T02:23:36.154Z,17.93
2019-01-29T02:26:06.331Z,15.93
2019-01-29T02:28:34.588Z,16.90
2019-01-29T02:31:02.995Z,16.70
2019-01-29T02:33:31.738Z,19.93
2019-01-29T02:36:00.082Z,18.50
2019-01-29T02:38:28.681Z,17.07
2019-01-29T02:40:57.372Z,16.13
2019-01-29T02:43:26.140Z,17.83
2019-01-29T02:45:54.778Z,16.07
2019-01-29T02:48:23.123Z,18.73
2019-01-29T02:50:51.935Z,14.57
2019-01-29T02:53:20.449Z,14.80
2019-01-29T02:55:49.147Z,14.90
2019-01-29T02:58:17.474Z,18.50
2019-01-29T03:00:47.130Z,16.47
2019-01-29T03:03:15.750Z,14.97
2019-01-29T03:05:44.448Z,17.27
2019-01-29T03:08:13.114Z,14.07
2019-01-29T03:10:41.796Z,17.07
2019-01-29T03:13:10.557Z,15.77
2019-01-29T03:15:38.959Z,14.47
2019-01-29T03:18:07.337Z,14.33
2019-01-29T03:20:35.899Z,15.67
2019-01-29T03:23:04.404Z,17.67
2019-01-29T03:25:33.819Z,14.37
2019-01-29T03:28:02.471Z,16.67
2019-01-29T03:30:30.747Z,14.73
2019-01-29T03:32:59.355Z,17.03
2019-01-29T03:35:28.097Z,15.57
2019-01-29T03:37:56.727Z,15.10
2019-01-29T03:40:26.209Z,17.00
2019-01-29T03:42:55.961Z,15.93
2019-01-29T03:45:25.526Z,16.33
2019-01-29T03:47:53.925Z,18.03
2019-01-29T03:50:34.066Z,15.20
2019-01-29T03:53:02.571Z,16.07
2019-01-29T03:55:31.500Z,16.83
2019-01-29T03:58:00.366Z,16.60
2019-01-29T04:00:28.609Z,15.80
2019-01-29T04:02:57.298Z,16.90
2019-01-29T04:05:26.080Z,17.63
2019-01-29T04:07:54.724Z,16.83
2019-01-29T04:10:23.422Z,20.30
2019-01-29T04:12:52.059Z,16.37
2019-01-29T04:15:21.327Z,18.40
2019-01-29T04:17:56.146Z,15.23
2019-01-29T04:20:25.012Z,16.57
2019-01-29T04:22:53.593Z,17.97
2019-01-29T04:25:22.119Z,17.23
2019-01-29T04:27:50.899Z,18.90
2019-01-29T04:30:20.601Z,19.93
2019-01-29T04:32:49.382Z,17.33
2019-01-29T04:35:18.041Z,18.77
2019-01-29T04:37:46.674Z,16.80
2019-01-29T04:40:17.236Z,17.33
2019-01-29T04:42:45.646Z,16.23
2019-01-29T04:45:14.786Z,16.77
2019-01-29T04:47:43.082Z,18.43
2019-01-29T04:50:14.115Z,17.83
2019-01-29T04:52:42.488Z,17.17
2019-01-29T04:55:12.082Z,17.57
2019-01-29T04:57:40.673Z,16.93
2019-01-29T05:00:12.581Z,19.20
2019-01-29T05:02:41.338Z,18.57
2019-01-29T05:05:10.421Z,18.60
2019-01-29T05:07:38.799Z,17.57
2019-01-29T05:10:08.578Z,18.37
2019-01-29T05:12:37.325Z,19.80
2019-01-29T05:15:07.452Z,17.13
2019-01-29T05:17:36.094Z,20.03
2019-01-29T05:20:05.692Z,20.97
2019-01-29T05:22:34.194Z,19.37
2019-01-29T05:25:03.063Z,19.67
2019-01-29T05:27:31.342Z,25.07
2019-01-29T05:29:59.946Z,21.23
2019-01-29T05:32:29.657Z,20.73
2019-01-29T05:34:58.326Z,20.90
2019-01-29T05:37:27.217Z,19.63
2019-01-29T05:39:55.587Z,19.30
2019-01-29T05:42:24.160Z,22.17
2019-01-29T05:44:52.865Z,20.47
2019-01-29T05:47:21.535Z,24.37
2019-01-29T05:49:49.807Z,25.17
2019-01-29T05:52:18.309Z,30.07
2019-01-29T05:54:46.965Z,30.73
2019-01-29T05:57:15.657Z,25.50
2019-01-29T05:59:49.853Z,19.97
2019-01-29T06:02:19.376Z,18.83
2019-01-29T06:04:48.083Z,17.97
2019-01-29T06:07:16.783Z,19.20
2019-01-29T06:09:45.238Z,16.07
2019-01-29T06:12:13.510Z,18.00
2019-01-29T06:14:41.810Z,20.03
2019-01-29T06:17:10.276Z,18.63
2019-01-29T06:19:38.692Z,19.17
2019-01-29T06:22:07.247Z,19.37
2019-01-29T06:24:36.150Z,17.17
2019-01-29T06:27:04.840Z,21.67
2019-01-29T06:29:34.993Z,20.80
2019-01-29T06:32:03.621Z,22.77
2019-01-29T06:34:32.306Z,19.90
2019-01-29T06:37:01.010Z,21.33
2019-01-29T06:39:29.678Z,19.77
2019-01-29T06:41:57.941Z,19.57
2019-01-29T06:44:26.450Z,21.43
2019-01-29T06:46:55.101Z,20.20
2019-01-29T06:49:23.812Z,24.13
2019-01-29T06:51:52.293Z,21.27
2019-01-29T06:54:20.691Z,24.70
2019-01-29T06:56:49.238Z,27.10
2019-01-29T06:59:17.946Z,23.33
2019-01-29T07:01:46.189Z,25.77
2019-01-29T07:04:15.154Z,22.83
2019-01-29T07:06:43.494Z,22.90
2019-01-29T07:09:12.361Z,21.90
2019-01-29T07:11:41.197Z,22.67
2019-01-29T07:14:09.569Z,25.70
2019-01-29T07:16:48.645Z,23.83
2019-01-29T07:19:38.733Z,27.60
2019-01-29T07:22:07.032Z,26.70
2019-01-29T07:24:42.674Z,25.47
2019-01-29T07:27:06.265Z,23.80
2019-01-29T07:29:37.602Z,25.20
2019-01-29T07:32:06.535Z,29.03
2019-01-29T07:34:34.871Z,30.40
2019-01-29T07:37:03.147Z,29.50
2019-01-29T07:39:31.956Z,29.20
2019-01-29T07:42:00.624Z,28.73
2019-01-29T07:44:29.307Z,27.80
2019-01-29T07:46:58.034Z,26.50
2019-01-29T07:49:26.866Z,30.17
2019-01-29T07:51:55.549Z,27.90
2019-01-29T07:54:24.071Z,26.67
2019-01-29T07:56:52.636Z,25.97
2019-01-29T07:59:32.549Z,29.13
2019-01-29T08:01:51.762Z,27.33
2019-01-29T08:04:20.420Z,27.93
2019-01-29T08:06:48.803Z,28.57
2019-01-29T08:09:25.642Z,33.87
2019-01-29T08:11:54.045Z,32.67
2019-01-29T08:14:22.735Z,36.67
2019-01-29T08:16:51.432Z,36.23
2019-01-29T08:19:20.363Z,31.93
2019-01-29T08:21:48.989Z,32.00
2019-01-29T08:24:17.714Z,36.23
2019-01-29T08:26:45.948Z,37.67
2019-01-29T08:29:14.667Z,39.43
2019-01-29T08:31:43.361Z,33.83
2019-01-29T08:34:11.801Z,41.00
2019-01-29T08:36:40.494Z,45.00
2019-01-29T08:39:09.507Z,41.67
2019-01-29T08:41:37.964Z,46.57
2019-01-29T08:44:06.553Z,46.00
2019-01-29T08:46:35.250Z,44.00
2019-01-29T08:49:04.221Z,46.37
2019-01-29T08:51:32.802Z,47.53
2019-01-29T08:54:01.106Z,44.70
2019-01-29T08:56:29.782Z,43.40
2019-01-29T08:58:58.449Z,40.47
2019-01-29T09:01:27.869Z,36.63
2019-01-29T09:03:56.345Z,38.53
2019-01-29T09:06:24.921Z,39.63
2019-01-29T09:08:53.633Z,39.47
2019-01-29T09:11:22.296Z,40.77
2019-01-29T09:13:50.659Z,38.20
2019-01-29T09:16:19.173Z,38.90
2019-01-29T09:18:47.726Z,43.20
2019-01-29T09:21:16.436Z,41.07
2019-01-29T09:23:44.728Z,34.47
2019-01-29T09:26:13.177Z,34.83
2019-01-29T09:28:41.884Z,37.30
2019-01-29T09:31:10.586Z,36.87
2019-01-29T09:33:38.821Z,40.33
2019-01-29T09:36:07.512Z,39.63
2019-01-29T09:38:36.013Z,37.30
2019-01-29T09:41:04.678Z,35.70
2019-01-29T09:43:34.191Z,33.93
2019-01-29T09:46:04.621Z,37.57
2019-01-29T09:48:33.424Z,32.60
2019-01-29T09:51:02.296Z,36.37
2019-01-29T09:53:30.994Z,35.37
2019-01-29T09:55:59.271Z,35.43
2019-01-29T09:58:27.939Z,34.43
2019-01-29T10:00:56.653Z,34.43
2019-01-29T10:03:25.110Z,37.20
2019-01-29T10:05:53.487Z,35.33
2019-01-29T10:08:22.544Z,34.83
2019-01-29T10:10:51.364Z,39.67
2019-01-29T10:13:20.051Z,31.53
2019-01-29T10:15:48.379Z,32.37
2019-01-29T10:18:17.019Z,39.50
2019-01-29T10:20:45.614Z,37.03
2019-01-29T10:23:13.994Z,36.13
2019-01-29T10:25:42.692Z,35.43
2019-01-29T10:28:11.161Z,37.37
2019-01-29T10:30:40.471Z,33.20
2019-01-29T10:33:09.133Z,35.13
2019-01-29T10:35:37.816Z,32.27
2019-01-29T10:38:06.217Z,31.07
2019-01-29T10:40:34.779Z,30.90
2019-01-29T10:43:03.769Z,26.90
2019-01-29T10:45:32.486Z,27.30
2019-01-29T10:48:00.931Z,27.33
2019-01-29T10:50:29.931Z,22.00
2019-01-29T10:52:58.438Z,17.07
2019-01-29T10:55:26.787Z,18.33
2019-01-29T10:57:55.271Z,23.03
2019-01-29T11:00:26.960Z,21.07
2019-01-29T11:03:01.213Z,16.83
2019-01-29T11:05:29.622Z,23.10
2019-01-29T11:07:58.097Z,14.83
2019-01-29T11:10:31.351Z,11.97
2019-01-29T11:13:00.226Z,22.47
2019-01-29T11:15:32.111Z,25.30
2019-01-29T11:18:00.936Z,11.87
2019-01-29T11:20:29.198Z,16.03
2019-01-29T11:22:57.770Z,14.03
2019-01-29T11:25:27.523Z,15.03
2019-01-29T11:27:56.170Z,17.53
2019-01-29T11:30:26.394Z,16.40
2019-01-29T11:32:55.279Z,14.03
2019-01-29T11:35:23.361Z,17.67
2019-01-29T11:37:51.441Z,14.60
2019-01-29T11:40:21.989Z,22.57
2019-01-29T11:42:50.237Z,20.53
2019-01-29T11:45:25.597Z,17.80
2019-01-29T11:47:54.253Z,14.63
2019-01-29T11:50:22.942Z,20.50
2019-01-29T11:52:51.646Z,26.57
2019-01-29T11:55:20.094Z,20.83
2019-01-29T11:57:48.605Z,24.90
2019-01-29T12:00:24.657Z,15.63
2019-01-29T12:02:53.346Z,18.83
2019-01-29T12:05:22.241Z,15.03
2019-01-29T12:07:50.727Z,18.63
2019-01-29T12:10:19.600Z,11.87
2019-01-29T12:12:49.293Z,28.83
2019-01-29T12:15:18.033Z,13.17
2019-01-29T12:17:46.675Z,14.00
2019-01-29T12:20:18.674Z,21.53
2019-01-29T12:22:47.422Z,18.83
2019-01-29T12:25:16.002Z,10.10
2019-01-29T12:27:44.434Z,22.27
2019-01-29T12:30:27.946Z,19.53
2019-01-29T12:32:56.772Z,12.40
2019-01-29T12:35:25.379Z,11.70
2019-01-29T12:37:53.923Z,7.87
2019-01-29T12:40:22.543Z,13.43
2019-01-29T12:42:51.177Z,8.73
2019-01-29T12:45:20.046Z,16.13
2019-01-29T12:47:49.412Z,17.63
2019-01-29T12:50:20.088Z,9.60
2019-01-29T12:53:10.840Z,27.93
2019-01-29T12:55:39.561Z,11.50
2019-01-29T12:58:08.073Z,16.60
2019-01-29T13:00:56.164Z,11.97
2019-01-29T13:03:24.688Z,12.80
2019-01-29T13:05:53.346Z,14.40
2019-01-29T13:08:22.790Z,27.27
2019-01-29T13:10:51.346Z,20.40
2019-01-29T13:13:19.609Z,10.43
2019-01-29T13:15:48.118Z,9.80
2019-01-29T13:18:16.546Z,12.97
2019-01-29T13:20:44.849Z,9.70
2019-01-29T13:23:13.565Z,12.43
2019-01-29T13:25:42.218Z,10.30
2019-01-29T13:28:10.906Z,7.83
2019-01-29T13:30:39.620Z,8.67
2019-01-29T13:33:13.801Z,10.67
2019-01-29T13:35:42.642Z,18.53
2019-01-29T13:38:11.165Z,11.03
2019-01-29T13:40:39.545Z,20.30
2019-01-29T13:43:07.980Z,21.33
2019-01-29T13:45:37.850Z,38.23
2019-01-29T13:48:06.633Z,10.37
2019-01-29T13:50:41.698Z,8.93
2019-01-29T13:53:10.391Z,23.80
2019-01-29T13:55:38.635Z,11.90
2019-01-29T13:58:08.023Z,8.77
2019-01-29T14:00:37.430Z,11.53
2019-01-29T14:03:07.310Z,9.03
2019-01-29T14:05:35.756Z,7.83
2019-01-29T14:08:04.582Z,10.67
2019-01-29T14:10:33.228Z,12.23
2019-01-29T14:13:01.513Z,9.80
2019-01-29T14:15:48.083Z,7.63
2019-01-29T14:18:17.333Z,8.13
2019-01-29T14:20:45.983Z,13.17
2019-01-29T14:23:14.567Z,11.73
2019-01-29T14:25:43.041Z,10.10
2019-01-29T14:28:11.931Z,8.23
2019-01-29T14:30:40.732Z,9.47
2019-01-29T14:33:09.242Z,10.37
2019-01-29T14:35:37.780Z,8.40
2019-01-29T14:38:45.514Z,8.17
2019-01-29T14:41:14.883Z,8.67
2019-01-29T14:44:10.840Z,9.00
2019-01-29T14:46:39.491Z,10.00
2019-01-29T14:49:08.179Z,8.23
2019-01-29T14:51:36.696Z,8.10
2019-01-29T14:54:05.760Z,9.43
2019-01-29T14:56:34.446Z,8.27
2019-01-29T14:59:03.153Z,6.87
2019-01-29T15:01:32.046Z,8.50
2019-01-29T15:04:00.710Z,7.50
2019-01-29T15:06:32.670Z,7.47
2019-01-29T15:08:59.914Z,6.03
2019-01-29T15:11:28.808Z,7.03
2019-01-29T15:13:57.722Z,9.10
2019-01-29T15:16:48.996Z,8.63
2019-01-29T15:19:20.699Z,6.73
2019-01-29T15:21:50.075Z,5.93
2019-01-29T15:24:18.668Z,8.13
2019-01-29T15:26:47.357Z,7.33
2019-01-29T15:29:16.024Z,6.43
2019-01-29T15:31:44.700Z,5.50
2019-01-29T15:34:13.120Z,7.17
2019-01-29T15:36:41.676Z,5.73
2019-01-29T15:39:10.561Z,5.43
2019-01-29T15:41:39.276Z,7.33
2019-01-29T15:44:07.753Z,5.53
2019-01-29T15:46:36.403Z,5.63
2019-01-29T15:49:05.421Z,9.30
2019-01-29T15:51:34.089Z,6.57
2019-01-29T15:54:02.760Z,6.83
2019-01-29T15:56:31.378Z,3.60
2019-01-29T15:59:00.032Z,2.90
2019-01-29T16:01:28.710Z,5.53
2019-01-29T16:03:57.152Z,5.57
2019-01-29T16:06:25.570Z,5.77
2019-01-29T16:08:53.958Z,6.63
2019-01-29T16:11:22.668Z,6.23
2019-01-29T16:13:52.356Z,9.13
2019-01-29T16:16:21.027Z,6.30
2019-01-29T16:18:49.729Z,4.83
2019-01-29T16:21:18.397Z,9.03
2019-01-29T16:23:47.092Z,7.97
2019-01-29T16:26:15.794Z,6.73
2019-01-29T16:28:44.444Z,5.47
2019-01-29T16:31:12.925Z,3.33
2019-01-29T16:33:42.405Z,3.30
2019-01-29T16:36:10.625Z,5.00
2019-01-29T16:38:39.205Z,5.47
2019-01-29T16:41:07.943Z,5.23
2019-01-29T16:43:37.311Z,5.13
2019-01-29T16:46:05.917Z,7.23
2019-01-29T16:48:34.593Z,5.63
2019-01-29T16:51:03.257Z,5.23
2019-01-29T16:53:31.330Z,6.43
2019-01-29T16:56:00.061Z,6.03
2019-01-29T16:58:28.719Z,6.60
2019-01-29T17:00:57.598Z,5.90
2019-01-29T17:03:26.088Z,8.00
2019-01-29T17:05:54.453Z,6.80
2019-01-29T17:08:23.015Z,11.90
2019-01-29T17:10:52.451Z,5.80
2019-01-29T17:13:21.214Z,8.33
2019-01-29T17:15:49.491Z,8.10
2019-01-29T17:18:18.002Z,9.13
2019-01-29T17:20:46.453Z,12.23
2019-01-29T17:23:15.136Z,6.63
2019-01-29T17:25:43.846Z,9.57
2019-01-29T17:28:12.730Z,9.43
2019-01-29T17:30:43.045Z,10.80
2019-01-29T17:33:13.967Z,6.37
2019-01-29T17:35:42.667Z,8.73
2019-01-29T17:38:11.045Z,12.53
2019-01-29T17:40:47.684Z,16.67
2019-01-29T17:43:16.294Z,13.60
2019-01-29T17:45:46.415Z,10.70
2019-01-29T17:48:14.924Z,10.63
2019-01-29T17:50:43.897Z,11.37
2019-01-29T17:53:12.389Z,9.23
2019-01-29T17:55:41.486Z,8.63
2019-01-29T17:58:10.977Z,8.43
2019-01-29T18:00:42.100Z,9.37
2019-01-29T18:03:10.591Z,10.90
2019-01-29T18:05:40.417Z,10.97
2019-01-29T18:08:08.726Z,11.63
2019-01-29T18:10:37.373Z,13.03
2019-01-29T18:13:06.150Z,13.63
2019-01-29T18:15:34.987Z,13.80
2019-01-29T18:18:03.630Z,13.83
2019-01-29T18:20:32.328Z,14.10
2019-01-29T18:23:01.060Z,12.93
2019-01-29T18:25:29.699Z,12.60
2019-01-29T18:28:01.179Z,10.87
2019-01-29T18:30:35.446Z,12.90
2019-01-29T18:33:05.393Z,12.07
2019-01-29T18:35:33.875Z,13.33
2019-01-29T18:38:02.567Z,11.73
2019-01-29T18:40:35.432Z,11.17
2019-01-29T18:43:04.408Z,10.70
2019-01-29T18:45:32.734Z,10.90
2019-01-29T18:48:01.381Z,11.17
2019-01-29T18:50:29.886Z,9.20
2019-01-29T18:52:58.529Z,7.77
2019-01-29T18:55:27.114Z,9.90
2019-01-29T18:57:55.625Z,9.23
2019-01-29T19:00:24.127Z,7.27
2019-01-29T19:02:52.703Z,8.13
2019-01-29T19:05:22.517Z,7.63
2019-01-29T19:07:51.919Z,8.57
2019-01-29T19:10:21.148Z,5.90
2019-01-29T19:12:49.987Z,7.00
2019-01-29T19:15:21.721Z,6.90
2019-01-29T19:17:50.083Z,9.27
2019-01-29T19:20:20.822Z,13.10
2019-01-29T19:22:49.524Z,7.53
2019-01-29T19:25:18.253Z,13.83
2019-01-29T19:27:46.622Z,8.27
2019-01-29T19:30:26.778Z,10.13
2019-01-29T19:32:58.510Z,13.33
2019-01-29T19:35:28.760Z,14.33
2019-01-29T19:37:58.263Z,12.90
2019-01-29T19:40:28.110Z,15.90
2019-01-29T19:42:56.893Z,11.13
2019-01-29T19:45:29.518Z,10.60
2019-01-29T19:48:00.076Z,9.73
2019-01-29T19:50:34.229Z,17.70
2019-01-29T19:53:11.961Z,9.63
2019-01-29T19:55:41.817Z,10.03
2019-01-29T19:58:11.064Z,13.40
2019-01-29T20:00:42.839Z,8.93
2019-01-29T20:03:12.774Z,10.83
2019-01-29T20:05:41.502Z,10.23
2019-01-29T20:08:10.704Z,13.57
2019-01-29T20:10:41.349Z,13.43
2019-01-29T20:13:10.164Z,10.90
2019-01-29T20:15:38.745Z,12.63
2019-01-29T20:18:08.318Z,12.70
2019-01-29T20:20:39.536Z,8.73
2019-01-29T20:23:08.973Z,8.13
2019-01-29T20:25:37.882Z,8.93
2019-01-29T20:28:06.789Z,6.47
2019-01-29T20:30:37.682Z,8.00
2019-01-29T20:33:07.615Z,6.93
2019-01-29T20:35:36.708Z,7.77
2019-01-29T20:38:05.640Z,7.30
2019-01-29T20:40:34.269Z,11.93
2019-01-29T20:43:03.195Z,10.70
2019-01-29T20:45:31.760Z,8.13
2019-01-29T20:48:00.520Z,10.47
2019-01-29T20:50:31.107Z,12.70
2019-01-29T20:52:59.660Z,9.63
2019-01-29T20:55:29.952Z,10.67
2019-01-29T20:57:58.906Z,8.07
2019-01-29T21:00:32.007Z,8.17
2019-01-29T21:03:00.372Z,8.77
2019-01-29T21:05:29.305Z,7.97
2019-01-29T21:08:00.488Z,12.17
2019-01-29T21:10:28.042Z,14.03
2019-01-29T21:12:56.626Z,11.70
2019-01-29T21:15:37.422Z,14.07
2019-01-29T21:17:59.585Z,7.33
2019-01-29T21:20:29.845Z,10.23
2019-01-29T21:22:58.873Z,9.90
2019-01-29T21:25:27.334Z,13.00
2019-01-29T21:27:55.670Z,12.50
2019-01-29T21:30:29.484Z,13.17
2019-01-29T21:32:58.233Z,10.70
2019-01-29T21:35:27.171Z,10.43
2019-01-29T21:37:55.774Z,10.40
2019-01-29T21:40:24.761Z,9.93
2019-01-29T21:42:53.618Z,9.60
2019-01-29T21:45:22.337Z,9.13
2019-01-29T21:47:51.462Z,9.10
2019-01-29T21:50:24.322Z,6.40
2019-01-29T21:52:53.584Z,8.97
2019-01-29T21:55:23.615Z,11.13
2019-01-29T21:57:52.329Z,11.47
2019-01-29T22:00:42.404Z,11.77
2019-01-29T22:03:10.873Z,10.10
2019-01-29T22:05:39.642Z,8.33
2019-01-29T22:08:09.706Z,10.57
2019-01-29T22:10:38.721Z,10.57
2019-01-29T22:13:09.211Z,8.93
2019-01-29T22:15:37.973Z,10.23
2019-01-29T22:18:08.418Z,12.90
2019-01-29T22:20:36.623Z,9.53
2019-01-29T22:23:05.689Z,9.13
2019-01-29T22:25:40.967Z,11.20
2019-01-29T22:28:10.472Z,12.43
2019-01-29T22:30:40.786Z,8.57
2019-01-29T22:33:09.315Z,9.40
2019-01-29T22:35:37.726Z,10.80
2019-01-29T22:38:06.831Z,11.30
2019-01-29T22:40:35.587Z,10.93
2019-01-29T22:43:07.710Z,12.63
2019-01-29T22:45:36.775Z,11.03
2019-01-29T22:48:06.554Z,13.87
2019-01-29T22:50:37.127Z,13.00
2019-01-29T22:53:05.633Z,7.83
2019-01-29T22:55:34.449Z,11.60
2019-01-29T22:58:03.556Z,10.47
2019-01-29T23:00:51.885Z,7.63
2019-01-29T23:03:24.775Z,10.80
2019-01-29T23:06:07.191Z,9.37
2019-01-29T23:08:35.898Z,12.70
2019-01-29T23:11:04.758Z,8.03
2019-01-29T23:13:33.512Z,10.03
2019-01-29T23:16:02.158Z,11.90
2019-01-29T23:18:31.220Z,9.13
2019-01-29T23:20:59.609Z,13.97
2019-01-29T23:23:28.396Z,13.17
2019-01-29T23:25:57.358Z,11.97
2019-01-29T23:28:25.744Z,10.33
2019-01-29T23:30:54.465Z,10.30
2019-01-29T23:33:23.129Z,12.33
2019-01-29T23:35:51.614Z,11.47
2019-01-29T23:38:20.309Z,12.10
2019-01-29T23:40:49.189Z,9.77
2019-01-29T23:43:17.977Z,9.30
2019-01-29T23:45:46.479Z,10.57
2019-01-29T23:48:15.258Z,9.27
2019-01-29T23:50:44.734Z,9.17
2019-01-29T23:53:13.549Z,14.40
2019-01-29T23:55:42.122Z,12.13
2019-01-29T23:58:10.505Z,9.43
